Time;durP1;ratioP1;P1;durP2;ratioP2;P2;SDS_P1;SDS_P2;PMS_P1;PMS_P2;Temp;Humidity;BMP_temperature;BMP_pressure;BME280_temperature;BME280_humidity;BME280_pressure;Samples;Min_cycle;Max_cycle;Signal;HPM_P1;HPM_P2
2022/01/02 00:00:19;;;;;;;9.00;5.83;;;;;;;2.41;100.00;99999.33;1794427;78;20906;-59
2022/01/02 00:02:50;;;;;;;8.78;6.08;;;;;;;2.43;100.00;99996.28;1786157;78;20878;-59
2022/01/02 00:05:23;;;;;;;9.10;6.42;;;;;;;2.45;100.00;99987.25;1757918;80;20945;-59
2022/01/02 00:08:03;;;;;;;9.30;5.95;;;;;;;2.49;100.00;99980.34;1768800;79;21485;-59
2022/01/02 00:10:38;;;;;;;7.95;5.87;;;;;;;2.50;100.00;99969.18;1770357;79;21085;-59
2022/01/02 00:13:06;;;;;;;9.23;5.97;;;;;;;2.52;100.00;99966.12;1793667;78;21473;-59
2022/01/02 00:15:33;;;;;;;9.43;6.08;;;;;;;2.54;100.00;99964.39;1772200;79;20932;-60
2022/01/02 00:18:12;;;;;;;8.20;5.95;;;;;;;2.55;100.00;99957.07;1771791;78;20898;-59
2022/01/02 00:20:46;;;;;;;7.75;5.40;;;;;;;2.57;100.00;99954.05;1789875;78;21402;-60
2022/01/02 00:23:07;;;;;;;9.18;6.25;;;;;;;2.60;100.00;99960.45;1791899;79;21473;-59
2022/01/02 00:25:40;;;;;;;;;;;;;;;2.62;100.00;99953.56;1789762;78;21005;-59
2022/01/02 00:28:07;;;;;;;9.18;5.58;;;;;;;2.66;100.00;99946.20;1793029;78;20541;-60
2022/01/02 00:30:34;;;;;;;7.53;5.33;;;;;;;2.68;100.00;99940.60;1788173;78;20882;-59
2022/01/02 00:33:02;;;;;;;12.95;6.08;;;;;;;2.72;100.00;99931.09;1790567;78;20920;-59
2022/01/02 00:35:29;;;;;;;8.53;5.15;;;;;;;2.73;100.00;99925.94;1790909;78;21092;-60
2022/01/02 00:37:56;;;;;;;6.25;5.20;;;;;;;2.76;100.00;99928.48;1791512;79;20910;-59
2022/01/02 00:40:23;;;;;;;7.08;4.92;;;;;;;2.78;100.00;99916.42;1802317;78;20878;-59
2022/01/02 00:43:01;;;;;;;6.37;4.60;;;;;;;2.84;100.00;99920.66;1790961;78;21472;-59
2022/01/02 00:45:32;;;;;;;6.62;4.87;;;;;;;2.86;100.00;99905.58;1782466;78;20953;-60
2022/01/02 00:48:10;;;;;;;5.90;4.42;;;;;;;2.90;100.00;99898.20;1793490;78;21034;-59
2022/01/02 00:50:52;;;;;;;6.85;5.12;;;;;;;2.91;100.00;99887.03;1786534;79;20894;-60
2022/01/02 00:53:20;;;;;;;5.78;4.53;;;;;;;2.95;100.00;99881.83;1781999;78;20958;-60
2022/01/02 00:55:48;;;;;;;7.17;5.30;;;;;;;3.01;100.00;99871.42;1789724;78;20998;-60
2022/01/02 00:58:17;;;;;;;8.20;4.72;;;;;;;3.03;100.00;99861.94;1786794;78;20977;-59
2022/01/02 01:00:50;;;;;;;6.17;4.47;;;;;;;3.07;100.00;99868.75;1793356;79;21500;-60
2022/01/02 01:03:26;;;;;;;7.12;5.03;;;;;;;3.10;100.00;99864.83;1782682;80;20957;-59
2022/01/02 01:05:55;;;;;;;5.70;4.65;;;;;;;3.11;100.00;99857.53;1776461;78;20859;-59
2022/01/02 01:08:24;;;;;;;8.53;4.87;;;;;;;3.12;100.00;99846.32;1776611;78;20947;-59
2022/01/02 01:10:51;;;;;;;8.38;5.33;;;;;;;3.14;100.00;99844.58;1787606;78;20894;-60
2022/01/02 01:13:18;;;;;;;7.05;5.12;;;;;;;3.16;100.00;99840.22;1781470;80;21053;-59
2022/01/02 01:15:45;;;;;;;7.30;5.27;;;;;;;3.18;100.00;99835.91;1774994;78;21470;-59
2022/01/02 01:18:12;;;;;;;6.75;5.15;;;;;;;3.20;100.00;99823.84;1775751;79;20930;-60
2022/01/02 01:20:43;;;;;;;6.25;4.92;;;;;;;3.24;100.00;99837.53;1775359;78;20974;-59
2022/01/02 01:23:15;;;;;;;7.10;5.37;;;;;;;3.28;100.00;99839.20;1788556;78;20937;-59
2022/01/02 01:25:44;;;;;;;7.58;5.47;;;;;;;3.29;100.00;99830.14;1772953;78;21094;-59
2022/01/02 01:28:08;;;;;;;7.60;5.60;;;;;;;3.29;100.00;99831.42;1781116;78;20962;-59
2022/01/02 01:30:35;;;;;;;7.03;5.85;;;;;;;3.33;100.00;99838.27;1768854;79;21394;-59
2022/01/02 01:33:02;;;;;;;8.63;5.40;;;;;;;3.38;100.00;99836.03;1763461;80;20863;-59
2022/01/02 01:35:28;;;;;;;9.25;5.50;;;;;;;3.40;100.00;99829.97;1754067;80;20910;-60
2022/01/02 01:37:55;;;;;;;7.42;6.00;;;;;;;3.42;100.00;99836.38;1748656;81;21037;-59
2022/01/02 01:40:22;;;;;;;10.68;6.20;;;;;;;3.44;100.00;99842.38;1743254;80;20899;-59
2022/01/02 01:42:58;;;;;;;8.58;5.90;;;;;;;3.46;100.00;99833.73;1717279;82;21365;-59
2022/01/02 01:45:29;;;;;;;7.65;5.35;;;;;;;3.49;100.00;99836.70;1756289;80;20949;-59
2022/01/02 01:48:01;;;;;;;6.95;5.65;;;;;;;3.52;100.00;99848.27;1738083;80;21420;-59
2022/01/02 01:50:32;;;;;;;8.65;5.50;;;;;;;3.54;100.00;99837.48;1762338;80;21049;-59
2022/01/02 01:52:59;;;;;;;8.78;6.30;;;;;;;3.58;100.00;99823.63;1766121;80;20939;-59
2022/01/02 01:55:26;;;;;;;8.85;5.17;;;;;;;3.61;100.00;99803.37;1769017;80;20914;-59
2022/01/02 01:57:52;;;;;;;7.03;5.35;;;;;;;3.62;100.00;99787.86;1793468;78;20926;-59
2022/01/02 02:00:22;;;;;;;6.47;4.87;;;;;;;3.63;100.00;99776.64;1772920;80;21052;-59
2022/01/02 02:02:49;;;;;;;6.90;4.70;;;;;;;3.67;100.00;99765.40;1767350;80;21113;-59
2022/01/02 02:05:16;;;;;;;6.92;4.95;;;;;;;3.69;100.00;99748.13;1790593;79;20950;-59
2022/01/02 02:07:45;;;;;;;6.10;4.80;;;;;;;3.71;100.00;99754.12;1756940;80;20908;-59
2022/01/02 02:10:24;;;;;;;6.37;5.00;;;;;;;3.75;100.00;99739.41;1744847;80;20931;-59
2022/01/02 02:12:48;;;;;;;6.00;4.92;;;;;;;3.80;100.00;99720.36;1767168;80;20933;-59
2022/01/02 02:15:17;;;;;;;5.93;4.70;;;;;;;3.84;100.00;99697.92;1761304;80;21935;-59
2022/01/02 02:17:46;;;;;;;7.25;4.58;;;;;;;3.88;100.00;99701.29;1754078;79;21487;-59
2022/01/02 02:20:23;;;;;;;7.03;4.45;;;;;;;3.93;100.00;99714.97;1757977;79;20929;-59
2022/01/02 02:22:55;;;;;;;6.62;4.35;;;;;;;3.96;100.00;99705.86;1743173;79;20914;-59
2022/01/02 02:25:28;;;;;;;6.90;4.62;;;;;;;4.02;100.00;99687.64;1769133;78;20913;-59
2022/01/02 02:28:03;;;;;;;5.03;4.15;;;;;;;4.05;100.00;99688.86;1765860;80;21040;-59
2022/01/02 02:30:32;;;;;;;7.42;4.55;;;;;;;4.08;100.00;99693.97;1783107;80;20930;-59
2022/01/02 02:33:02;;;;;;;6.70;4.33;;;;;;;4.11;100.00;99697.77;1787680;79;20946;-59
2022/01/02 02:35:31;;;;;;;5.58;4.45;;;;;;;4.17;100.00;99678.28;1784041;79;20891;-59
2022/01/02 02:37:58;;;;;;;7.92;5.35;;;;;;;4.21;100.00;99679.91;1780466;79;21499;-59
2022/01/02 02:40:28;;;;;;;9.13;5.58;;;;;;;4.26;100.00;99678.52;1782756;79;21527;-59
2022/01/02 02:43:04;;;;;;;10.13;5.53;;;;;;;4.30;100.00;99680.14;1793608;78;21472;-58
2022/01/02 02:51:11;;;;;;;7.58;5.35;;;;;;;4.42;100.00;99651.86;1745804;81;21479;-58
2022/01/02 02:53:44;;;;;;;7.55;5.90;;;;;;;4.44;100.00;99640.60;1735949;80;21130;-58
2022/01/02 02:56:22;;;;;;;8.85;6.20;;;;;;;4.46;100.00;99627.66;1754627;80;20980;-59
2022/01/02 02:58:49;;;;;;;8.80;6.75;;;;;;;4.47;100.00;99625.02;1764647;79;20877;-59
2022/01/02 03:01:19;;;;;;;8.18;5.92;;;;;;;4.47;100.00;99620.29;1772375;79;20938;-59
2022/01/02 03:03:46;;;;;;;10.13;6.78;;;;;;;4.49;100.00;99613.36;1764686;80;20924;-58
2022/01/02 03:06:14;;;;;;;10.48;6.72;;;;;;;4.52;100.00;99606.81;1793936;78;21032;-59
2022/01/02 03:08:43;;;;;;;9.15;6.47;;;;;;;4.55;100.00;99604.15;1786137;79;21396;-59
2022/01/02 03:11:16;;;;;;;9.23;6.47;;;;;;;4.56;100.00;99595.49;1789153;79;20961;-59
2022/01/02 03:13:43;;;;;;;9.13;6.62;;;;;;;4.58;100.00;99595.47;1791242;78;21463;-59
2022/01/02 03:16:11;;;;;;;10.03;6.97;;;;;;;4.61;100.00;99588.48;1766703;80;20910;-59
2022/01/02 03:18:38;;;;;;;8.03;6.40;;;;;;;4.64;100.00;99588.40;1780636;78;21035;-59
2022/01/02 03:21:05;;;;;;;10.28;6.67;;;;;;;4.68;100.00;99577.11;1784454;80;20891;-59
2022/01/02 03:23:32;;;;;;;10.95;7.03;;;;;;;4.73;100.00;99582.14;1779888;78;20934;-59
2022/01/02 03:25:59;;;;;;;10.63;6.80;;;;;;;4.74;100.00;99571.38;1750086;80;20970;-59
2022/01/02 03:28:26;;;;;;;9.38;6.95;;;;;;;4.78;100.00;99567.80;1775176;79;20919;-59
2022/01/02 03:30:52;;;;;;;11.83;7.33;;;;;;;4.73;100.00;99560.60;1786429;80;21023;-59
2022/01/02 03:33:19;;;;;;;13.30;7.53;;;;;;;4.80;100.00;99556.98;1781780;78;20874;-59
2022/01/02 03:35:46;;;;;;;13.87;8.20;;;;;;;4.83;100.00;99543.97;1763893;80;20923;-59
2022/01/02 03:38:12;;;;;;;11.93;7.67;;;;;;;4.87;100.00;99545.56;1763610;80;20925;-59
2022/01/02 03:40:39;;;;;;;12.47;7.93;;;;;;;4.90;100.00;99525.66;1789280;78;20965;-59
2022/01/02 03:43:06;;;;;;;11.38;7.97;;;;;;;4.95;100.00;99520.34;1740694;81;21026;-59
2022/01/02 03:45:33;;;;;;;10.23;7.58;;;;;;;4.98;100.00;99511.64;1735406;80;21009;-59
2022/01/02 03:48:00;;;;;;;11.95;8.15;;;;;;;5.01;100.00;99512.40;1735641;81;20979;-59
2022/01/02 03:50:26;;;;;;;11.55;8.65;;;;;;;5.05;100.00;99504.97;1761732;80;20955;-59
2022/01/02 03:52:53;;;;;;;12.10;8.25;;;;;;;5.08;100.00;99495.82;1763640;80;20927;-59
2022/01/02 03:55:20;;;;;;;9.97;7.83;;;;;;;5.11;100.00;99484.09;1743820;80;22101;-59
2022/01/02 03:57:47;;;;;;;13.48;8.43;;;;;;;5.14;100.00;99477.97;1719141;82;20963;-59
2022/01/02 04:00:15;;;;;;;9.73;7.30;;;;;;;5.18;100.00;99459.31;1761442;80;20908;-59
2022/01/02 04:02:42;;;;;;;12.55;8.25;;;;;;;5.20;100.00;99452.36;1726716;82;20984;-59
2022/01/02 04:05:12;;;;;;;11.88;8.08;;;;;;;5.20;100.00;99450.61;1731776;81;21018;-59
2022/01/02 04:07:40;;;;;;;10.38;8.20;;;;;;;5.22;100.00;99445.41;1746905;81;21872;-59
2022/01/02 04:10:13;;;;;;;12.28;8.10;;;;;;;5.25;100.00;99450.48;1751320;80;20924;-59
2022/01/02 04:12:41;;;;;;;10.68;8.85;;;;;;;5.27;100.00;99452.14;1752559;81;20907;-59
2022/01/02 04:15:09;;;;;;;9.83;8.00;;;;;;;5.32;100.00;99458.03;1713430;81;21014;-59
2022/01/02 04:17:37;;;;;;;12.50;7.95;;;;;;;5.35;100.00;99449.33;1716906;82;20999;-59
2022/01/02 04:20:06;;;;;;;11.60;8.55;;;;;;;5.37;100.00;99449.66;1720944;81;20993;-59
2022/01/02 04:22:33;;;;;;;11.22;8.08;;;;;;;5.40;100.00;99452.59;1750500;80;21476;-59
2022/01/02 04:25:00;;;;;;;11.57;8.43;;;;;;;5.46;100.00;99443.38;1725803;81;20996;-59
2022/01/02 04:27:26;;;;;;;13.37;8.90;;;;;;;5.50;100.00;99446.25;1729792;81;20997;-59
2022/01/02 04:29:53;;;;;;;12.37;8.95;;;;;;;5.56;100.00;99435.70;1751822;80;20912;-59
2022/01/02 04:32:23;;;;;;;12.77;8.60;;;;;;;5.61;100.00;99428.64;1732337;82;21053;-59
2022/01/02 04:34:49;;;;;;;11.70;7.80;;;;;;;5.65;100.00;99410.41;1761773;80;20925;-59
2022/01/02 04:37:16;;;;;;;12.25;8.88;;;;;;;5.69;100.00;99414.61;1731894;81;20934;-59
2022/01/02 04:39:44;;;;;;;12.88;9.23;;;;;;;5.71;100.00;99402.43;1732815;81;20871;-59
2022/01/02 04:42:10;;;;;;;11.08;8.35;;;;;;;5.72;100.00;99405.44;1728875;81;20926;-59
2022/01/02 04:44:37;;;;;;;11.07;8.43;;;;;;;5.72;100.00;99401.09;1742477;81;21565;-59
2022/01/02 04:47:04;;;;;;;10.13;8.28;;;;;;;5.75;100.00;99406.63;1758791;80;20894;-59
2022/01/02 04:49:31;;;;;;;10.05;8.15;;;;;;;5.78;100.00;99406.53;1774755;79;20910;-59
2022/01/02 04:51:58;;;;;;;11.17;8.40;;;;;;;5.80;100.00;99402.16;1761578;80;20890;-59
2022/01/02 04:54:25;;;;;;;12.13;9.23;;;;;;;5.83;100.00;99396.87;1753735;81;20964;-59
2022/01/02 04:56:52;;;;;;;13.33;9.40;;;;;;;5.83;100.00;99391.69;1768745;80;21535;-59
2022/01/02 04:59:18;;;;;;;13.15;9.23;;;;;;;5.85;100.00;99391.16;1735075;81;21450;-58
2022/01/02 05:01:45;;;;;;;13.40;9.15;;;;;;;5.89;100.00;99392.77;1782614;79;21458;-59
2022/01/02 05:04:12;;;;;;;14.50;10.32;;;;;;;5.88;100.00;99384.61;1788324;79;20912;-59
2022/01/02 05:06:39;;;;;;;15.20;9.70;;;;;;;5.88;100.00;99371.66;1761255;80;20890;-59
2022/01/02 05:09:05;;;;;;;15.03;9.80;;;;;;;5.87;100.00;99364.76;1758446;80;21108;-60
2022/01/02 05:11:32;;;;;;;12.18;9.75;;;;;;;5.90;100.00;99362.06;1750606;81;20892;-59
2022/01/02 05:13:59;;;;;;;11.48;9.73;;;;;;;5.94;100.00;99353.79;1757254;80;20931;-59
2022/01/02 05:16:26;;;;;;;11.48;8.88;;;;;;;5.99;100.00;99366.11;1770054;79;21418;-59
2022/01/02 05:18:52;;;;;;;12.33;8.50;;;;;;;6.03;100.00;99365.97;1768585;79;20962;-59
2022/01/02 05:21:19;;;;;;;14.90;9.53;;;;;;;6.05;100.00;99361.59;1756250;79;21048;-59
2022/01/02 05:23:47;;;;;;;14.50;9.28;;;;;;;6.10;100.00;99363.16;1778835;79;20954;-59
2022/01/02 05:26:13;;;;;;;12.13;9.25;;;;;;;6.14;100.00;99372.08;1777067;79;21472;-59
2022/01/02 05:28:40;;;;;;;13.18;9.33;;;;;;;6.18;100.00;99368.92;1771993;79;20969;-59
2022/01/02 05:31:07;;;;;;;14.47;9.90;;;;;;;6.23;100.00;99356.66;1769284;80;20949;-60
2022/01/02 05:33:33;;;;;;;14.80;9.60;;;;;;;6.25;100.00;99352.27;1767866;80;21840;-60
2022/01/02 05:36:00;;;;;;;15.77;10.10;;;;;;;6.25;100.00;99341.90;1770235;79;21495;-60
2022/01/02 05:38:27;;;;;;;13.43;10.18;;;;;;;6.26;100.00;99330.61;1775083;79;20890;-59
2022/01/02 05:40:55;;;;;;;17.00;10.43;;;;;;;6.27;100.00;99326.69;1769763;79;20945;-59
2022/01/02 05:43:22;;;;;;;12.98;9.68;;;;;;;6.29;100.00;99312.35;1768446;79;20957;-59
2022/01/02 05:45:48;;;;;;;11.30;9.53;;;;;;;6.32;100.00;99317.42;1768097;79;21047;-60
2022/01/02 05:48:15;;;;;;;12.47;9.83;;;;;;;6.33;100.00;99302.28;1754282;79;20931;-60
2022/01/02 05:50:42;;;;;;;14.33;10.15;;;;;;;6.38;100.00;99306.82;1770703;79;20882;-60
2022/01/02 05:53:09;;;;;;;12.68;9.65;;;;;;;6.39;100.00;99299.45;1766383;79;20882;-59
2022/01/02 05:55:35;;;;;;;14.07;10.75;;;;;;;6.43;100.00;99278.98;1752344;81;20898;-59
2022/01/02 05:58:02;;;;;;;9.50;8.53;;;;;;;6.45;100.00;99281.07;1767587;79;22139;-60
2022/01/02 06:00:29;;;;;;;13.55;10.18;;;;;;;6.47;100.00;99296.13;1764042;79;20906;-59
2022/01/02 06:02:55;;;;;;;12.68;10.00;;;;;;;6.47;100.00;99281.87;1770152;79;21438;-60
2022/01/02 06:05:22;;;;;;;17.00;10.80;;;;;;;6.52;100.00;99287.32;1770834;81;20894;-60
2022/01/02 06:07:50;;;;;;;16.70;12.68;;;;;;;6.55;100.00;99284.61;1765956;79;21484;-60
2022/01/02 06:10:16;;;;;;;14.75;12.20;;;;;;;6.59;100.00;99293.98;1765898;79;21924;-59
2022/01/02 06:12:43;;;;;;;13.77;11.07;;;;;;;6.63;100.00;99285.16;1766964;80;20941;-59
2022/01/02 06:15:12;;;;;;;16.40;10.97;;;;;;;6.65;100.00;99273.83;1763834;80;20918;-58
2022/01/02 06:17:39;;;;;;;13.93;10.15;;;;;;;6.69;100.00;99269.36;1762915;79;21242;-59
2022/01/02 06:20:07;;;;;;;12.73;10.00;;;;;;;6.71;100.00;99255.88;1772811;79;21619;-59
2022/01/02 06:22:34;;;;;;;12.75;10.43;;;;;;;6.73;100.00;99247.59;1773929;79;21892;-58
2022/01/02 06:25:01;;;;;;;14.33;10.65;;;;;;;6.75;100.00;99250.11;1767858;79;20874;-59
2022/01/02 06:27:28;;;;;;;11.70;10.05;;;;;;;6.78;100.00;99248.27;1760519;80;21568;-58
2022/01/02 06:29:54;;;;;;;15.37;11.60;;;;;;;6.80;100.00;99258.11;1775493;79;21001;-58
2022/01/02 06:32:21;;;;;;;18.40;12.47;;;;;;;6.87;100.00;99245.30;1768210;79;21649;-59
2022/01/02 06:34:49;;;;;;;13.65;10.25;;;;;;;6.90;100.00;99232.20;1773110;79;21075;-59
2022/01/02 06:37:17;;;;;;;14.38;10.45;;;;;;;6.93;100.00;99245.50;1769709;79;21425;-59
2022/01/02 06:39:47;;;;;;;17.17;11.22;;;;;;;6.98;100.00;99233.66;1767872;79;20934;-59
2022/01/02 06:42:14;;;;;;;14.90;10.70;;;;;;;6.99;100.00;99211.97;1772463;80;20884;-59
2022/01/02 06:44:41;;;;;;;13.98;9.80;;;;;;;7.03;100.00;99207.03;1756271;80;21025;-59
2022/01/02 06:47:08;;;;;;;15.68;13.25;;;;;;;7.06;100.00;99209.07;1773123;79;21038;-58
2022/01/02 06:49:37;;;;;;;18.50;16.35;;;;;;;7.10;100.00;99208.48;1769636;81;24044;-59
2022/01/02 06:52:04;;;;;;;10.68;9.20;;;;;;;7.13;100.00;99199.27;1762860;79;20933;-58
2022/01/02 06:54:31;;;;;;;18.27;11.60;;;;;;;7.17;100.00;99203.44;1763946;81;20878;-59
2022/01/02 06:56:59;;;;;;;11.93;9.53;;;;;;;7.20;100.00;99187.73;1752440;79;21564;-59
2022/01/02 06:59:26;;;;;;;11.22;9.35;;;;;;;7.24;100.00;99176.29;1764827;79;21068;-59
2022/01/02 07:01:52;;;;;;;12.80;8.60;;;;;;;7.29;100.00;99178.70;1741529;80;21698;-59
2022/01/02 07:04:19;;;;;;;10.77;9.67;;;;;;;7.33;100.00;99169.86;1769367;79;20917;-59
2022/01/02 07:06:49;;;;;;;12.40;8.45;;;;;;;7.34;100.00;99158.58;1767741;80;21496;-58
2022/01/02 07:09:17;;;;;;;13.70;8.80;;;;;;;7.32;100.00;99163.83;1765889;81;20905;-59
2022/01/02 07:11:44;;;;;;;10.18;9.05;;;;;;;7.39;100.00;99160.07;1716824;82;21907;-58
2022/01/02 07:14:13;;;;;;;12.00;9.25;;;;;;;7.39;100.00;99160.07;1731928;81;21441;-59
2022/01/02 07:16:40;;;;;;;15.55;11.45;;;;;;;7.42;100.00;99147.84;1735865;81;21489;-59
2022/01/02 07:19:07;;;;;;;10.98;8.98;;;;;;;7.43;100.00;99147.78;1714990;80;20992;-58
2022/01/02 07:21:33;;;;;;;11.80;9.03;;;;;;;7.45;100.00;99143.38;1754090;80;20995;-59
2022/01/02 07:24:01;;;;;;;11.12;8.90;;;;;;;7.48;100.00;99143.67;1759982;80;21550;-59
2022/01/02 07:26:28;;;;;;;11.78;8.83;;;;;;;7.50;100.00;99140.56;1733063;81;21449;-58
2022/01/02 07:28:55;;;;;;;11.33;8.83;;;;;;;7.52;100.00;99148.67;1748348;81;20975;-59
2022/01/02 07:31:24;;;;;;;12.33;9.23;;;;;;;7.52;100.00;99138.74;1753925;80;20932;-58
2022/01/02 07:33:53;;;;;;;13.08;9.93;;;;;;;7.56;100.00;99142.88;1759805;81;21564;-57
2022/01/02 07:36:20;;;;;;;10.18;9.05;;;;;;;7.57;100.00;99140.69;1753220;80;21093;-58
2022/01/02 07:38:47;;;;;;;14.20;11.73;;;;;;;7.59;100.00;99131.08;1750747;81;20946;-58
2022/01/02 07:41:15;;;;;;;15.10;9.68;;;;;;;7.62;100.00;99127.88;1757061;80;28736;-58
2022/01/02 07:43:42;;;;;;;14.73;11.57;;;;;;;7.63;100.00;99126.13;1734161;81;20949;-58
2022/01/02 07:46:09;;;;;;;13.15;10.78;;;;;;;7.64;100.00;99117.41;1762826;80;20929;-57
2022/01/02 07:48:36;;;;;;;17.98;11.63;;;;;;;7.67;100.00;99112.06;1760408;81;21192;-57
2022/01/02 07:51:04;;;;;;;12.43;9.43;;;;;;;7.63;100.00;99118.33;1731553;81;21543;-58
2022/01/02 07:53:32;;;;;;;10.18;8.48;;;;;;;7.70;100.00;99118.88;1730953;80;21028;-58
2022/01/02 07:55:59;;;;;;;11.57;8.45;;;;;;;7.71;100.00;99122.73;1762048;80;20981;-58
2022/01/02 07:58:26;;;;;;;14.23;9.08;;;;;;;7.73;100.00;99135.20;1750811;81;20924;-58
2022/01/02 08:00:55;;;;;;;12.73;8.68;;;;;;;7.76;100.00;99135.06;1760838;80;20989;-58
2022/01/02 08:03:22;;;;;;;11.45;8.50;;;;;;;7.82;100.00;99137.38;1748906;81;20959;-58
2022/01/02 08:05:48;;;;;;;14.75;9.05;;;;;;;7.83;100.00;99134.31;1716642;82;20949;-57
2022/01/02 08:08:15;;;;;;;11.37;8.03;;;;;;;7.88;100.00;99127.62;1763428;80;20941;-58
2022/01/02 08:10:42;;;;;;;13.47;9.10;;;;;;;7.91;100.00;99119.68;1742791;80;20920;-58
2022/01/02 08:13:15;;;;;;;11.18;8.55;;;;;;;7.93;100.00;99112.66;1762087;80;21033;-58
2022/01/02 08:15:43;;;;;;;13.22;8.08;;;;;;;7.93;100.00;99107.00;1739934;80;21428;-58
2022/01/02 08:18:13;;;;;;;12.93;8.50;;;;;;;7.92;100.00;99094.06;1736474;81;21519;-58
2022/01/02 08:20:45;;;;;;;10.43;7.80;;;;;;;7.92;100.00;99088.40;1743690;80;20954;-58
2022/01/02 08:23:10;;;;;;;10.78;8.18;;;;;;;7.93;100.00;99091.86;1753787;79;20968;-58
2022/01/02 08:25:38;;;;;;;11.67;7.77;;;;;;;7.93;100.00;99084.91;1761519;81;21027;-58
2022/01/02 08:28:04;;;;;;;10.03;8.25;;;;;;;7.94;100.00;99075.34;1763235;79;21495;-58
2022/01/02 08:30:31;;;;;;;12.73;8.90;;;;;;;7.95;100.00;99066.62;1744935;80;20958;-58
2022/01/02 08:32:58;;;;;;;12.40;8.95;;;;;;;7.97;100.00;99067.40;1752375;80;21697;-58
2022/01/02 08:35:25;;;;;;;10.97;7.87;;;;;;;7.98;100.00;99061.27;1754836;81;20929;-59
2022/01/02 08:37:52;;;;;;;11.25;8.03;;;;;;;8.00;100.00;99048.59;1759769;81;21632;-58
2022/01/02 08:40:19;;;;;;;11.83;7.78;;;;;;;8.01;100.00;99045.52;1760266;80;21472;-58
2022/01/02 08:42:45;;;;;;;10.98;7.70;;;;;;;8.00;100.00;99036.05;1751635;80;20934;-58
2022/01/02 08:45:12;;;;;;;10.00;7.03;;;;;;;8.01;100.00;99033.83;1755465;81;21436;-57
2022/01/02 08:47:39;;;;;;;14.43;7.83;;;;;;;8.03;100.00;99035.91;1729893;81;20895;-58
2022/01/02 08:50:06;;;;;;;10.63;7.87;;;;;;;8.05;100.00;99026.28;1740532;82;21266;-58
2022/01/02 08:52:38;;;;;;;10.82;7.90;;;;;;;8.06;100.00;99025.36;1737331;80;21006;-59
2022/01/02 08:55:06;;;;;;;9.63;7.08;;;;;;;8.09;100.00;99017.41;1712079;82;21894;-59
2022/01/02 08:57:33;;;;;;;10.68;7.75;;;;;;;8.14;100.00;99010.23;1727183;83;20934;-59
2022/01/02 08:59:59;;;;;;;11.00;7.05;;;;;;;8.18;100.00;99002.67;1740466;81;20942;-58
2022/01/02 09:02:26;;;;;;;10.88;7.05;;;;;;;8.22;100.00;98989.89;1738734;82;21039;-59
2022/01/02 09:04:53;;;;;;;8.05;6.50;;;;;;;8.25;100.00;98983.70;1718699;82;21528;-59
2022/01/02 09:07:19;;;;;;;10.63;6.95;;;;;;;8.28;100.00;98980.48;1716586;82;20976;-58
2022/01/02 09:09:46;;;;;;;9.63;7.50;;;;;;;8.30;100.00;98973.92;1736188;82;21542;-58
2022/01/02 09:12:14;;;;;;;10.53;6.78;;;;;;;8.30;100.00;98965.65;1755443;80;20927;-58
2022/01/02 09:14:42;;;;;;;8.53;6.05;;;;;;;8.34;100.00;98961.59;1742524;81;21007;-58
2022/01/02 09:17:09;;;;;;;9.28;6.12;;;;;;;8.37;100.00;98961.44;1735456;81;20968;-58
2022/01/02 09:19:38;;;;;;;8.53;6.12;;;;;;;8.37;100.00;98960.13;1741061;82;21004;-58
2022/01/02 09:22:06;;;;;;;9.10;6.65;;;;;;;8.40;100.00;98953.50;1728365;82;20993;-58
2022/01/02 09:24:37;;;;;;;7.42;6.22;;;;;;;8.41;100.00;98937.00;1715538;83;20909;-58
2022/01/02 09:27:09;;;;;;;11.78;6.15;;;;;;;8.42;100.00;98936.06;1724167;82;21043;-58
2022/01/02 09:29:42;;;;;;;7.58;6.37;;;;;;;8.45;100.00;98930.70;1717222;82;20989;-58
2022/01/02 09:32:10;;;;;;;10.32;6.33;;;;;;;8.48;100.00;98926.18;1740297;80;20952;-58
2022/01/02 09:34:46;;;;;;;9.13;6.15;;;;;;;8.52;100.00;98919.08;1717020;81;20962;-58
2022/01/02 09:37:11;;;;;;;9.93;7.50;;;;;;;8.53;100.00;98910.34;1734155;82;20917;-58
2022/01/02 09:39:41;;;;;;;9.48;7.70;;;;;;;8.57;100.00;98902.77;1699255;82;21048;-58
2022/01/02 09:42:13;;;;;;;9.63;7.60;;;;;;;8.63;100.00;98894.64;1735370;80;21583;-58
2022/01/02 09:44:42;;;;;;;13.83;10.88;;;;;;;8.65;100.00;98903.19;1732008;82;20961;-58
2022/01/02 09:47:10;;;;;;;15.90;11.13;;;;;;;8.68;100.00;98904.36;1748101;79;21654;-58
2022/01/02 09:49:39;;;;;;;12.63;7.60;;;;;;;8.73;100.00;98897.12;1760964;79;20993;-58
2022/01/02 09:52:07;;;;;;;10.23;7.50;;;;;;;8.77;100.00;98890.48;1739852;79;21045;-58
2022/01/02 09:54:35;;;;;;;10.10;7.22;;;;;;;8.80;100.00;98881.20;1766772;79;20919;-58
2022/01/02 09:57:11;;;;;;;11.18;9.08;;;;;;;8.81;100.00;98881.57;1759641;79;20976;-59
2022/01/02 09:59:45;;;;;;;16.25;10.08;;;;;;;8.80;100.00;98874.23;1765014;79;20986;-60
2022/01/02 10:02:09;;;;;;;8.38;6.42;;;;;;;8.82;100.00;98858.51;1694425;83;20910;-60
2022/01/02 10:04:40;;;;;;;8.63;6.87;;;;;;;8.85;100.00;98850.53;1705182;82;21204;-60
2022/01/02 10:07:30;;;;;;;9.40;5.95;;;;;;;8.82;100.00;98845.50;1703779;82;21449;-61
2022/01/02 10:09:57;;;;;;;9.10;6.78;;;;;;;8.82;100.00;98846.80;1706192;82;21954;-61
2022/01/02 10:12:29;;;;;;;9.73;7.80;;;;;;;8.80;100.00;98852.57;1695719;83;20927;-61
2022/01/02 10:15:19;;;;;;;11.63;7.30;;;;;;;8.84;100.00;98855.38;1723352;82;21691;-62
2022/01/02 10:18:03;;;;;;;8.13;6.37;;;;;;;8.82;100.00;98846.36;1684761;84;21780;-61
2022/01/02 10:20:41;;;;;;;9.85;6.37;;;;;;;8.78;100.00;98843.53;1696008;83;21005;-61
2022/01/02 10:23:28;;;;;;;6.58;5.47;;;;;;;8.74;100.00;98836.36;1667416;84;21002;-61
2022/01/02 10:26:16;;;;;;;;;;;;;;;8.71;100.00;98824.81;1690343;84;20910;-60
2022/01/02 10:28:35;;;;;;;7.72;5.53;;;;;;;8.73;100.00;98816.44;1679648;83;20514;-61
2022/01/02 10:31:13;;;;;;;6.08;4.95;;;;;;;8.76;100.00;98802.89;1688500;83;22352;-60
2022/01/02 10:33:52;;;;;;;;;;;;;;;8.81;100.00;98803.48;1686056;84;21016;-61
2022/01/02 10:36:34;;;;;;;10.30;6.62;;;;;;;8.82;100.00;98809.92;1688512;83;20573;-61
2022/01/02 10:39:23;;;;;;;10.25;6.08;;;;;;;8.83;100.00;98797.73;1688445;84;21009;-61
2022/01/02 10:41:52;;;;;;;9.35;6.45;;;;;;;8.84;100.00;98798.10;1680645;83;21030;-60
2022/01/02 10:44:23;;;;;;;10.05;7.00;;;;;;;8.85;100.00;98808.88;1681205;84;21115;-61
2022/01/02 10:47:21;;;;;;;8.23;6.05;;;;;;;8.88;100.00;98797.03;1691399;83;20970;-61
2022/01/02 10:50:01;;;;;;;11.48;7.28;;;;;;;8.89;100.00;98797.39;1685848;83;21025;-61
2022/01/02 10:52:45;;;;;;;11.95;9.20;;;;;;;8.88;100.00;98795.73;1684842;83;20971;-60
2022/01/02 10:55:22;;;;;;;9.20;5.55;;;;;;;8.89;100.00;98793.49;1682533;83;20957;-61
2022/01/02 10:57:51;;;;;;;;;;;;;;;8.90;100.00;98788.65;1687010;81;20953;-60
2022/01/02 11:00:21;;;;;;;8.25;5.72;;;;;;;8.88;100.00;98786.15;1757805;80;20198;-60
2022/01/02 11:02:48;;;;;;;8.33;6.10;;;;;;;8.86;100.00;98783.25;1753494;79;20911;-61
2022/01/02 11:05:22;;;;;;;13.38;9.75;;;;;;;8.85;100.00;98775.05;1765381;80;21481;-61
2022/01/02 11:07:54;;;;;;;11.90;9.85;;;;;;;8.84;100.00;98759.06;1725283;81;20965;-61
2022/01/02 11:10:22;;;;;;;16.70;13.78;;;;;;;8.80;100.00;98761.47;1759654;80;21055;-60
2022/01/02 11:12:52;;;;;;;12.58;9.05;;;;;;;8.74;100.00;98760.88;1760725;80;20918;-61
2022/01/02 11:15:28;;;;;;;12.07;10.20;;;;;;;8.78;100.00;98750.30;1764525;79;21444;-61
2022/01/02 11:17:53;;;;;;;9.78;7.95;;;;;;;8.74;100.00;98742.66;1753810;80;21456;-60
2022/01/02 11:20:27;;;;;;;8.28;6.65;;;;;;;8.73;100.00;98739.66;1739174;80;21311;-60
2022/01/02 11:23:29;;;;;;;6.67;4.22;;;;;;;8.70;100.00;98750.23;1760926;80;21901;-61
2022/01/02 11:26:16;;;;;;;6.83;4.25;;;;;;;8.70;100.00;98748.94;1758749;79;20989;-61
2022/01/02 11:28:48;;;;;;;;;;;;;;;8.69;100.00;98735.56;1758837;79;20993;-61
2022/01/02 11:31:40;;;;;;;5.37;4.60;;;;;;;8.70;100.00;98735.92;1759210;80;20121;-61
2022/01/02 11:34:27;;;;;;;6.37;3.87;;;;;;;8.72;100.00;98728.88;1755402;80;20925;-60
2022/01/02 11:37:17;;;;;;;5.63;3.83;;;;;;;8.68;100.00;98713.08;1755115;79;21104;-60
2022/01/02 11:40:04;;;;;;;4.78;3.75;;;;;;;8.68;100.00;98713.08;1763713;80;22682;-61
2022/01/02 11:42:44;;;;;;;4.67;3.35;;;;;;;8.69;100.00;98713.44;1754617;80;20983;-62
2022/01/02 11:45:26;;;;;;;5.10;4.40;;;;;;;8.73;100.00;98707.13;1736651;80;20970;-62